PWSweather.com
Personal Weather Stations
Station Observations
IONTARIO88
Lincoln, ON L0R

Lincoln, ON L0R

Lat: 43.1763563, Lon: -79.4719525

Elevation: 297

Station Type: Davis Vantage Pro 2 Plus

http://www.beamsvillewx.ca

Latest ConditionsUpdated 5:40:03 PM EDT Thursday, May 25, 2017
Currently Today's Max Today's Min Today's Average
Temperature 52.9°F11.6°C 57.0°F13.9°C 52.7°F11.5°C 54.2°F12.3°C
Dew Point 51.5°F10.8°C 55.6°F13.1°C 51.0°F10.6°C 52.7°F11.5°C
Winds Calm Calm 1.2 mph WNW1.9 kmh WNW - 0.0 mph 0.0 kmh
Wind Gusts 2.3 mph3.7 kmh 5.8 mph9.3 kmh - -
Humidity 95% 96% 90% 95%
Pressure 29.45 in997.3 mb 29.59 in1002.0 mb 29.45 in997.3 mb -
Precipitation - 1.45 in36.8 mm - -
Hour Temp Dew Point Humidity Winds Wind Gusts Pressure Precip Precip Rate Daily Precip Total
05:40 PM 52.9°F11.6°C 51.5°F10.8°C 95% Calm Calm 2.3 mph3.7 kmh 29.45 in997.3 mb - 0.00 in0.0 mm 1.45 in36.8 mm
05:30 PM 53.1°F11.7°C 51.7°F10.9°C 95% Calm Calm -- 29.45 in997.3 mb - 0.00 in0.0 mm 1.45 in36.8 mm
05:20 PM 53.3°F11.8°C 52.2°F11.2°C 96% Calm Calm 3.5 mph5.6 kmh 29.45 in997.3 mb - 0.00 in0.0 mm 1.45 in36.8 mm
05:10 PM 53.4°F11.9°C 52.3°F11.3°C 96% Calm Calm -- 29.45 in997.3 mb - 0.00 in0.0 mm 1.45 in36.8 mm
05:00 PM 53.7°F12.1°C 52.6°F11.4°C 96% Calm Calm 1.2 mph1.9 kmh 29.45 in997.3 mb - 0.00 in0.0 mm 1.45 in36.8 mm
04:50 PM 54.0°F12.2°C 52.9°F11.6°C 96% Calm Calm 2.3 mph3.7 kmh 29.45 in997.3 mb - 0.00 in0.0 mm 1.45 in36.8 mm
04:40 PM 53.9°F12.2°C 52.8°F11.6°C 96% Calm Calm 2.3 mph3.7 kmh 29.45 in997.3 mb - 0.00 in0.0 mm 1.45 in36.8 mm
04:30 PM 53.7°F12.1°C 52.6°F11.4°C 96% 1.2 mph ENE1.9 kmh ENE 2.3 mph3.7 kmh 29.45 in997.3 mb - 0.00 in0.0 mm 1.45 in36.8 mm
04:20 PM 53.6°F12.0°C 52.5°F11.4°C 96% Calm Calm -- 29.45 in997.3 mb - 0.00 in0.0 mm 1.45 in36.8 mm
04:10 PM 53.8°F12.1°C 52.7°F11.5°C 96% Calm Calm 1.2 mph1.9 kmh 29.45 in997.3 mb - 0.00 in0.0 mm 1.45 in36.8 mm
04:00 PM 54.0°F12.2°C 52.9°F11.6°C 96% Calm Calm -- 29.46 in997.6 mb - 0.01 in0.3 mm 1.45 in36.8 mm
03:50 PM 53.9°F12.2°C 52.8°F11.6°C 96% Calm Calm -- 29.46 in997.6 mb - 0.00 in0.0 mm 1.44 in36.6 mm
03:40 PM 54.0°F12.2°C 52.9°F11.6°C 96% Calm Calm -- 29.46 in997.6 mb - 0.00 in0.0 mm 1.44 in36.6 mm
03:30 PM 53.8°F12.1°C 52.7°F11.5°C 96% Calm Calm 1.2 mph1.9 kmh 29.46 in997.6 mb - 0.00 in0.0 mm 1.44 in36.6 mm
03:20 PM 53.7°F12.1°C 52.6°F11.4°C 96% Calm Calm 3.5 mph5.6 kmh 29.47 in998.0 mb - 0.00 in0.0 mm 1.44 in36.6 mm
03:10 PM 53.7°F12.1°C 52.6°F11.4°C 96% Calm Calm 1.2 mph1.9 kmh 29.47 in998.0 mb - 0.00 in0.0 mm 1.44 in36.6 mm
03:00 PM 54.0°F12.2°C 52.9°F11.6°C 96% Calm Calm -- 29.47 in998.0 mb - 0.00 in0.0 mm 1.44 in36.6 mm
02:50 PM 53.9°F12.2°C 52.8°F11.6°C 96% Calm Calm 1.2 mph1.9 kmh 29.47 in998.0 mb - 0.00 in0.0 mm 1.44 in36.6 mm
02:40 PM 54.1°F12.3°C 53.0°F11.7°C 96% 1.2 mph NE1.9 kmh NE 5.8 mph9.3 kmh 29.47 in998.0 mb - 0.00 in0.0 mm 1.44 in36.6 mm
02:30 PM 54.2°F12.3°C 53.1°F11.7°C 96% Calm Calm 2.3 mph3.7 kmh 29.48 in998.3 mb - 0.00 in0.0 mm 1.44 in36.6 mm
02:20 PM 54.0°F12.2°C 52.9°F11.6°C 96% Calm Calm 1.2 mph1.9 kmh 29.48 in998.3 mb - 0.00 in0.0 mm 1.44 in36.6 mm
02:10 PM 53.8°F12.1°C 52.7°F11.5°C 96% 1.2 mph NE1.9 kmh NE 1.2 mph1.9 kmh 29.48 in998.3 mb - 0.00 in0.0 mm 1.44 in36.6 mm
02:00 PM 53.8°F12.1°C 52.7°F11.5°C 96% Calm Calm 1.2 mph1.9 kmh 29.48 in998.3 mb - 0.01 in0.3 mm 1.44 in36.6 mm
01:50 PM 53.8°F12.1°C 52.7°F11.5°C 96% Calm Calm 1.2 mph1.9 kmh 29.49 in998.6 mb - 0.00 in0.0 mm 1.43 in36.3 mm
01:40 PM 54.0°F12.2°C 52.9°F11.6°C 96% Calm Calm 2.3 mph3.7 kmh 29.49 in998.6 mb - 0.00 in0.0 mm 1.43 in36.3 mm
01:30 PM 53.9°F12.2°C 52.8°F11.6°C 96% Calm Calm -- 29.50 in999.0 mb - 0.00 in0.0 mm 1.43 in36.3 mm
01:20 PM 53.8°F12.1°C 52.7°F11.5°C 96% Calm Calm 1.2 mph1.9 kmh 29.50 in999.0 mb - 0.01 in0.3 mm 1.43 in36.3 mm
01:10 PM 53.8°F12.1°C 52.7°F11.5°C 96% Calm Calm -- 29.50 in999.0 mb - 0.00 in0.0 mm 1.43 in36.3 mm
01:00 PM 53.9°F12.2°C 52.8°F11.6°C 96% Calm Calm 1.2 mph1.9 kmh 29.50 in999.0 mb - 0.01 in0.3 mm 1.43 in36.3 mm
12:50 PM 53.8°F12.1°C 52.7°F11.5°C 96% Calm Calm -- 29.50 in999.0 mb - 0.03 in0.8 mm 1.42 in36.1 mm
12:40 PM 53.7°F12.1°C 52.6°F11.4°C 96% Calm Calm -- 29.50 in999.0 mb - 0.03 in0.8 mm 1.39 in35.3 mm
12:30 PM 53.7°F12.1°C 52.6°F11.4°C 96% Calm Calm -- 29.50 in999.0 mb - 0.05 in1.3 mm 1.36 in34.5 mm
12:20 PM 53.7°F12.1°C 52.6°F11.4°C 96% Calm Calm -- 29.51 in999.3 mb - 0.03 in0.8 mm 1.32 in33.5 mm
12:10 PM 53.6°F12.0°C 52.5°F11.4°C 96% Calm Calm -- 29.51 in999.3 mb - 0.03 in0.8 mm 1.28 in32.5 mm
12:00 PM 53.6°F12.0°C 52.5°F11.4°C 96% Calm Calm -- 29.51 in999.3 mb - 0.04 in1.0 mm 1.26 in32.0 mm
11:50 AM 53.6°F12.0°C 52.2°F11.2°C 95% Calm Calm 1.2 mph1.9 kmh 29.51 in999.3 mb - 0.04 in1.0 mm 1.23 in31.2 mm
11:40 AM 53.7°F12.1°C 52.3°F11.3°C 95% Calm Calm -- 29.51 in999.3 mb - 0.05 in1.3 mm 1.19 in30.2 mm
11:30 AM 53.7°F12.1°C 52.3°F11.3°C 95% Calm Calm -- 29.52 in999.7 mb - 0.06 in1.5 mm 1.14 in29.0 mm
11:20 AM 53.7°F12.1°C 52.3°F11.3°C 95% Calm Calm 2.3 mph3.7 kmh 29.52 in999.7 mb - 0.05 in1.3 mm 1.09 in27.7 mm
11:10 AM 53.8°F12.1°C 52.4°F11.3°C 95% Calm Calm 2.3 mph3.7 kmh 29.52 in999.7 mb - 0.06 in1.5 mm 1.06 in26.9 mm
11:00 AM 53.7°F12.1°C 52.3°F11.3°C 95% Calm Calm -- 29.52 in999.7 mb - 0.06 in1.5 mm 1.00 in25.4 mm
10:50 AM 53.8°F12.1°C 52.4°F11.3°C 95% Calm Calm 1.2 mph1.9 kmh 29.52 in999.7 mb - 0.07 in1.8 mm 0.95 in24.1 mm
10:40 AM 54.1°F12.3°C 52.7°F11.5°C 95% Calm Calm 1.2 mph1.9 kmh 29.51 in999.3 mb - 0.08 in2.0 mm 0.88 in22.4 mm
10:30 AM 54.2°F12.3°C 52.8°F11.6°C 95% Calm Calm -- 29.51 in999.3 mb - 0.06 in1.5 mm 0.82 in20.8 mm
10:20 AM 54.1°F12.3°C 52.7°F11.5°C 95% Calm Calm -- 29.52 in999.7 mb - 0.04 in1.0 mm 0.76 in19.3 mm
10:10 AM 54.2°F12.3°C 52.8°F11.6°C 95% Calm Calm -- 29.53 in1000.0 mb - 0.04 in1.0 mm 0.72 in18.3 mm
10:00 AM 54.3°F12.4°C 52.9°F11.6°C 95% Calm Calm -- 29.53 in1000.0 mb - 0.04 in1.0 mm 0.69 in17.5 mm
09:50 AM 54.1°F12.3°C 52.7°F11.5°C 95% Calm Calm -- 29.53 in1000.0 mb - 0.04 in1.0 mm 0.65 in16.5 mm
09:40 AM 54.0°F12.2°C 52.6°F11.4°C 95% Calm Calm -- 29.53 in1000.0 mb - 0.02 in0.5 mm 0.62 in15.7 mm
09:30 AM 53.9°F12.2°C 52.5°F11.4°C 95% Calm Calm -- 29.53 in1000.0 mb - 0.02 in0.5 mm 0.60 in15.2 mm
09:20 AM 54.0°F12.2°C 52.6°F11.4°C 95% Calm Calm 1.2 mph1.9 kmh 29.53 in1000.0 mb - 0.02 in0.5 mm 0.58 in14.7 mm
09:10 AM 54.0°F12.2°C 52.6°F11.4°C 95% Calm Calm -- 29.53 in1000.0 mb - 0.02 in0.5 mm 0.58 in14.7 mm
09:00 AM 54.0°F12.2°C 52.6°F11.4°C 95% Calm Calm -- 29.53 in1000.0 mb - 0.02 in0.5 mm 0.55 in14.0 mm
08:50 AM 53.9°F12.2°C 52.5°F11.4°C 95% Calm Calm 2.3 mph3.7 kmh 29.53 in1000.0 mb - 0.02 in0.5 mm 0.54 in13.7 mm
08:40 AM 53.9°F12.2°C 52.5°F11.4°C 95% Calm Calm 1.2 mph1.9 kmh 29.53 in1000.0 mb - 0.01 in0.3 mm 0.53 in13.5 mm
08:30 AM 54.0°F12.2°C 52.6°F11.4°C 95% Calm Calm -- 29.53 in1000.0 mb - 0.02 in0.5 mm 0.52 in13.2 mm
08:20 AM 54.0°F12.2°C 52.6°F11.4°C 95% Calm Calm 1.2 mph1.9 kmh 29.53 in1000.0 mb - 0.02 in0.5 mm 0.51 in13.0 mm
08:10 AM 54.3°F12.4°C 52.9°F11.6°C 95% Calm Calm -- 29.53 in1000.0 mb - 0.01 in0.3 mm 0.50 in12.7 mm
08:00 AM 54.5°F12.5°C 53.1°F11.7°C 95% Calm Calm 2.3 mph3.7 kmh 29.53 in1000.0 mb - 0.02 in0.5 mm 0.49 in12.4 mm
07:50 AM 54.6°F12.6°C 53.2°F11.8°C 95% Calm Calm 3.5 mph5.6 kmh 29.53 in1000.0 mb - 0.02 in0.5 mm 0.48 in12.2 mm
07:40 AM 54.7°F12.6°C 53.3°F11.8°C 95% Calm Calm 2.3 mph3.7 kmh 29.53 in1000.0 mb - 0.01 in0.3 mm 0.47 in11.9 mm
07:30 AM 55.0°F12.8°C 53.6°F12.0°C 95% Calm Calm 1.2 mph1.9 kmh 29.54 in1000.3 mb - 0.02 in0.5 mm 0.46 in11.7 mm
07:20 AM 55.4°F13.0°C 54.0°F12.2°C 95% Calm Calm -- 29.54 in1000.3 mb - 0.01 in0.3 mm 0.44 in11.2 mm
07:10 AM 55.8°F13.2°C 54.4°F12.4°C 95% Calm Calm -- 29.54 in1000.3 mb - 0.02 in0.5 mm 0.44 in11.2 mm
07:00 AM 55.9°F13.3°C 54.5°F12.5°C 95% Calm Calm -- 29.54 in1000.3 mb - 0.02 in0.5 mm 0.43 in10.9 mm
06:50 AM 56.0°F13.3°C 54.6°F12.6°C 95% Calm Calm -- 29.54 in1000.3 mb - 0.01 in0.3 mm 0.42 in10.7 mm
06:40 AM 56.4°F13.6°C 55.0°F12.8°C 95% Calm Calm -- 29.54 in1000.3 mb - 0.02 in0.5 mm 0.41 in10.4 mm
06:30 AM 56.6°F13.7°C 55.2°F12.9°C 95% Calm Calm -- 29.54 in1000.3 mb - 0.02 in0.5 mm 0.39 in9.9 mm
06:20 AM 57.0°F13.9°C 55.6°F13.1°C 95% Calm Calm -- 29.54 in1000.3 mb - 0.02 in0.5 mm 0.38 in9.7 mm
06:10 AM 56.8°F13.8°C 55.4°F13.0°C 95% Calm Calm -- 29.54 in1000.3 mb - 0.02 in0.5 mm 0.35 in8.9 mm
06:00 AM 56.3°F13.5°C 54.9°F12.7°C 95% Calm Calm -- 29.54 in1000.3 mb - 0.01 in0.3 mm 0.34 in8.6 mm
05:50 AM 55.7°F13.2°C 54.3°F12.4°C 95% Calm Calm -- 29.54 in1000.3 mb - 0.01 in0.3 mm 0.33 in8.4 mm
05:40 AM 55.6°F13.1°C 54.2°F12.3°C 95% Calm Calm -- 29.54 in1000.3 mb - 0.00 in0.0 mm 0.32 in8.1 mm
05:30 AM 55.2°F12.9°C 53.8°F12.1°C 95% Calm Calm -- 29.55 in1000.7 mb - 0.01 in0.3 mm 0.32 in8.1 mm
05:20 AM 54.9°F12.7°C 53.5°F11.9°C 95% Calm Calm -- 29.55 in1000.7 mb - 0.00 in0.0 mm 0.32 in8.1 mm
05:10 AM 54.6°F12.6°C 53.2°F11.8°C 95% Calm Calm -- 29.55 in1000.7 mb - 0.01 in0.3 mm 0.32 in8.1 mm
05:00 AM 54.4°F12.4°C 53.0°F11.7°C 95% Calm Calm -- 29.55 in1000.7 mb - 0.00 in0.0 mm 0.31 in7.9 mm
04:50 AM 54.3°F12.4°C 52.9°F11.6°C 95% Calm Calm -- 29.56 in1001.0 mb - 0.00 in0.0 mm 0.31 in7.9 mm
04:40 AM 54.1°F12.3°C 52.7°F11.5°C 95% Calm Calm -- 29.56 in1001.0 mb - 0.00 in0.0 mm 0.31 in7.9 mm
04:30 AM 53.9°F12.2°C 52.5°F11.4°C 95% Calm Calm -- 29.56 in1001.0 mb - 0.01 in0.3 mm 0.31 in7.9 mm
04:20 AM 53.7°F12.1°C 52.3°F11.3°C 95% Calm Calm -- 29.56 in1001.0 mb - 0.00 in0.0 mm 0.30 in7.6 mm
04:10 AM 53.5°F11.9°C 51.8°F11.0°C 94% Calm Calm -- 29.56 in1001.0 mb - 0.00 in0.0 mm 0.30 in7.6 mm
04:00 AM 53.2°F11.8°C 51.5°F10.8°C 94% Calm Calm -- 29.56 in1001.0 mb - 0.00 in0.0 mm 0.30 in7.6 mm
03:50 AM 52.9°F11.6°C 51.2°F10.7°C 94% Calm Calm -- 29.56 in1001.0 mb - 0.01 in0.3 mm 0.30 in7.6 mm
03:40 AM 52.9°F11.6°C 51.2°F10.7°C 94% Calm Calm -- 29.56 in1001.0 mb - 0.02 in0.5 mm 0.29 in7.4 mm
03:30 AM 52.8°F11.6°C 51.1°F10.6°C 94% Calm Calm -- 29.57 in1001.4 mb - 0.01 in0.3 mm 0.27 in6.9 mm
03:20 AM 52.7°F11.5°C 51.0°F10.6°C 94% Calm Calm -- 29.57 in1001.4 mb - 0.02 in0.5 mm 0.26 in6.6 mm
03:10 AM 52.8°F11.6°C 51.1°F10.6°C 94% Calm Calm -- 29.57 in1001.4 mb - 0.02 in0.5 mm 0.24 in6.1 mm
03:00 AM 53.1°F11.7°C 51.1°F10.6°C 93% Calm Calm -- 29.57 in1001.4 mb - 0.01 in0.3 mm 0.23 in5.8 mm
02:50 AM 53.2°F11.8°C 51.2°F10.7°C 93% Calm Calm -- 29.57 in1001.4 mb - 0.03 in0.8 mm 0.22 in5.6 mm
02:40 AM 53.4°F11.9°C 51.4°F10.8°C 93% Calm Calm 1.2 mph1.9 kmh 29.57 in1001.4 mb - 0.03 in0.8 mm 0.20 in5.1 mm
02:30 AM 53.7°F12.1°C 51.7°F10.9°C 93% Calm Calm -- 29.58 in1001.7 mb - 0.02 in0.5 mm 0.17 in4.3 mm
02:20 AM 53.9°F12.2°C 51.9°F11.1°C 93% Calm Calm -- 29.59 in1002.0 mb - 0.03 in0.8 mm 0.14 in3.6 mm
02:10 AM 54.0°F12.2°C 52.0°F11.1°C 93% Calm Calm -- 29.59 in1002.0 mb - 0.02 in0.5 mm 0.11 in2.8 mm
02:00 AM 54.2°F12.3°C 51.9°F11.1°C 92% Calm Calm -- 29.59 in1002.0 mb - 0.04 in1.0 mm 0.09 in2.3 mm
01:50 AM 54.6°F12.6°C 52.3°F11.3°C 92% 1.2 mph WNW1.9 kmh WNW 2.3 mph3.7 kmh 29.59 in1002.0 mb - 0.02 in0.5 mm 0.05 in1.3 mm
01:40 AM 54.9°F12.7°C 52.6°F11.4°C 92% Calm Calm -- 29.59 in1002.0 mb - 0.01 in0.3 mm 0.02 in0.5 mm
01:30 AM 55.2°F12.9°C 52.9°F11.6°C 92% Calm Calm 2.3 mph3.7 kmh 29.59 in1002.0 mb - 0.02 in0.5 mm 0.02 in0.5 mm
01:20 AM 55.4°F13.0°C 53.1°F11.7°C 92% Calm Calm -- 29.59 in1002.0 mb - 0.00 in0.0 mm 0.00 in0.0 mm
01:10 AM 55.3°F12.9°C 53.0°F11.7°C 92% Calm Calm -- 29.59 in1002.0 mb - 0.00 in0.0 mm 0.00 in0.0 mm
01:00 AM 55.1°F12.8°C 52.8°F11.6°C 92% Calm Calm -- 29.59 in1002.0 mb - 0.00 in0.0 mm 0.00 in0.0 mm
12:50 AM 54.8°F12.7°C 52.2°F11.2°C 91% Calm Calm -- 29.59 in1002.0 mb - 0.00 in0.0 mm 0.00 in0.0 mm
12:40 AM 54.6°F12.6°C 52.3°F11.3°C 92% Calm Calm -- 29.58 in1001.7 mb - 0.00 in0.0 mm 0.00 in0.0 mm
12:30 AM 54.3°F12.4°C 51.7°F10.9°C 91% Calm Calm -- 29.58 in1001.7 mb - 0.00 in0.0 mm 0.00 in0.0 mm
12:20 AM 54.1°F12.3°C 51.6°F10.9°C 91% Calm Calm -- 29.59 in1002.0 mb - 0.00 in0.0 mm 0.00 in0.0 mm
12:10 AM 54.0°F12.2°C 51.4°F10.8°C 91% Calm Calm -- 29.59 in1002.0 mb - 0.00 in0.0 mm 0.00 in0.0 mm
12:00 AM 53.9°F12.2°C 51.0°F10.6°C 90% Calm Calm -- 29.59 in1002.0 mb - 0.00 in0.0 mm 0.00 in0.0 mm